Time;durP1;ratioP1;P1;durP2;ratioP2;P2;SDS_P1;SDS_P2;PMS_P1;PMS_P2;Temp;Humidity;BMP_temperature;BMP_pressure;BME280_temperature;BME280_humidity;BME280_pressure;Samples;Min_cycle;Max_cycle;Signal;HPM_P1;HPM_P2
2021/12/30 00:02:42;;;;;;;0.73;0.73;;;6.00;99.90;;;;;;5071954;28;20468;-70
2021/12/30 00:05:29;;;;;;;0.40;0.40;;;6.00;99.90;;;;;;5072628;28;20422;-69
2021/12/30 00:08:16;;;;;;;0.40;0.40;;;6.10;99.90;;;;;;5072260;28;20422;-69
2021/12/30 00:11:04;;;;;;;0.40;0.40;;;6.10;99.90;;;;;;5072349;28;20450;-71
2021/12/30 00:13:52;;;;;;;0.50;0.50;;;6.10;99.90;;;;;;5073954;28;20517;-70
2021/12/30 00:16:39;;;;;;;0.40;0.40;;;6.10;99.90;;;;;;5073809;28;20438;-69
2021/12/30 00:19:26;;;;;;;0.40;0.40;;;6.10;99.90;;;;;;5072466;28;20419;-71
2021/12/30 00:22:13;;;;;;;0.50;0.50;;;6.10;99.90;;;;;;5073109;28;20894;-70
2021/12/30 00:25:00;;;;;;;0.40;0.40;;;6.10;99.90;;;;;;5072355;28;20457;-70
2021/12/30 00:27:47;;;;;;;0.40;0.40;;;6.20;99.90;;;;;;5072611;28;20434;-70
2021/12/30 00:30:36;;;;;;;0.50;0.50;;;6.10;99.90;;;;;;5071877;28;20431;-70
2021/12/30 00:33:24;;;;;;;0.40;0.40;;;6.20;99.90;;;;;;5071759;28;20467;-71
2021/12/30 00:36:13;;;;;;;0.40;0.40;;;6.20;99.90;;;;;;5072020;28;20489;-70
2021/12/30 00:39:00;;;;;;;0.50;0.50;;;6.20;99.90;;;;;;5071788;28;20451;-69
2021/12/30 00:41:47;;;;;;;0.40;0.40;;;6.20;99.90;;;;;;5072009;28;20427;-69
2021/12/30 00:44:34;;;;;;;0.40;0.40;;;6.30;99.90;;;;;;5071952;28;20462;-70
2021/12/30 00:47:22;;;;;;;0.50;0.50;;;6.40;99.90;;;;;;5071931;28;20428;-71
2021/12/30 00:50:10;;;;;;;0.40;0.40;;;6.30;99.90;;;;;;5075378;28;20591;-70
2021/12/30 00:52:58;;;;;;;0.40;0.40;;;6.30;99.90;;;;;;5075239;28;20530;-70
2021/12/30 00:55:45;;;;;;;0.40;0.40;;;6.30;99.90;;;;;;5075381;28;20431;-70
2021/12/30 00:58:33;;;;;;;0.40;0.40;;;6.30;99.90;;;;;;5075390;28;20835;-71
2021/12/30 01:01:20;;;;;;;0.40;0.40;;;6.20;99.90;;;;;;5084879;28;21008;-70
2021/12/30 01:04:08;;;;;;;0.40;0.40;;;6.30;99.90;;;;;;5094870;28;20453;-70
2021/12/30 01:06:55;;;;;;;0.40;0.40;;;6.40;99.90;;;;;;5094596;28;20500;-69
2021/12/30 01:09:42;;;;;;;0.40;0.40;;;6.40;99.90;;;;;;5094523;28;20477;-70
2021/12/30 01:12:29;;;;;;;0.50;0.50;;;6.50;99.90;;;;;;5095187;28;20425;-69
2021/12/30 01:15:19;;;;;;;0.40;0.40;;;6.50;99.90;;;;;;5094571;28;20415;-70
2021/12/30 01:18:25;;;;;;;0.40;0.40;;;6.50;99.90;;;;;;5094680;28;20421;-69
2021/12/30 01:21:14;;;;;;;0.40;0.40;;;6.60;99.90;;;;;;5094741;28;20425;-70
2021/12/30 01:24:03;;;;;;;0.40;0.40;;;6.60;99.90;;;;;;5095188;28;20442;-70
2021/12/30 01:26:50;;;;;;;0.40;0.40;;;6.60;99.90;;;;;;5094388;28;20825;-69
2021/12/30 01:29:37;;;;;;;0.40;0.40;;;6.60;99.90;;;;;;5094748;28;20445;-70
2021/12/30 01:32:24;;;;;;;0.40;0.40;;;6.50;99.90;;;;;;5094744;28;20433;-71
2021/12/30 01:35:15;;;;;;;0.40;0.40;;;6.60;99.90;;;;;;5094588;28;20462;-70
2021/12/30 01:38:05;;;;;;;0.40;0.40;;;6.60;99.90;;;;;;5094949;28;20422;-69
2021/12/30 01:40:57;;;;;;;0.40;0.40;;;6.70;99.90;;;;;;5094433;28;20426;-69
2021/12/30 01:43:45;;;;;;;0.40;0.40;;;6.60;99.90;;;;;;5094200;28;20515;-70
2021/12/30 01:46:38;;;;;;;0.40;0.40;;;6.60;99.90;;;;;;5094296;28;20441;-70
2021/12/30 01:49:26;;;;;;;0.40;0.40;;;6.60;99.90;;;;;;5093673;28;20430;-70
2021/12/30 01:52:13;;;;;;;0.40;0.40;;;6.70;99.90;;;;;;5094290;28;20831;-70
2021/12/30 01:55:02;;;;;;;0.40;0.40;;;6.60;99.90;;;;;;5093983;28;20458;-71
2021/12/30 01:57:50;;;;;;;0.40;0.40;;;6.60;99.90;;;;;;5094317;28;20930;-70
2021/12/30 02:00:39;;;;;;;0.40;0.40;;;6.70;99.90;;;;;;5089170;28;20436;-71
2021/12/30 02:03:26;;;;;;;0.40;0.40;;;6.80;99.90;;;;;;5072469;28;20979;-70
2021/12/30 02:06:13;;;;;;;0.40;0.40;;;6.70;99.90;;;;;;5077715;28;20426;-70
2021/12/30 02:09:00;;;;;;;0.40;0.40;;;6.80;99.90;;;;;;5092769;28;20426;-72
2021/12/30 02:11:49;;;;;;;0.40;0.40;;;6.80;99.90;;;;;;5089708;28;20426;-70
2021/12/30 02:14:36;;;;;;;0.40;0.40;;;6.80;99.90;;;;;;5093118;28;20978;-71
2021/12/30 02:17:23;;;;;;;0.40;0.40;;;6.90;99.90;;;;;;5092578;28;20415;-69
2021/12/30 02:20:33;;;;;;;0.40;0.40;;;6.80;99.90;;;;;;5093755;28;20426;-70
2021/12/30 02:23:24;;;;;;;0.40;0.40;;;6.80;99.90;;;;;;5093423;28;21020;-70
2021/12/30 02:26:14;;;;;;;0.40;0.40;;;6.70;99.90;;;;;;5092942;28;20418;-69
2021/12/30 02:29:01;;;;;;;0.40;0.40;;;6.70;99.90;;;;;;5092594;28;20421;-71
2021/12/30 02:31:48;;;;;;;0.40;0.40;;;6.80;99.90;;;;;;5092910;28;20456;-70
2021/12/30 02:34:36;;;;;;;0.40;0.40;;;6.70;99.90;;;;;;5092754;28;20610;-70
2021/12/30 02:37:23;;;;;;;0.40;0.40;;;6.80;99.90;;;;;;5093014;28;20461;-69
2021/12/30 02:40:13;;;;;;;0.40;0.40;;;6.90;99.90;;;;;;5091917;28;20772;-70
2021/12/30 02:43:01;;;;;;;2.00;1.93;;;6.80;99.90;;;;;;5092518;28;20496;-70
2021/12/30 02:45:49;;;;;;;0.40;0.40;;;6.80;99.90;;;;;;5092225;28;20453;-70
2021/12/30 02:48:37;;;;;;;4.33;4.13;;;6.80;99.90;;;;;;5092167;28;20921;-69
2021/12/30 02:51:25;;;;;;;0.40;0.40;;;6.70;99.90;;;;;;5093007;28;20468;-70
2021/12/30 02:54:12;;;;;;;0.93;0.93;;;6.80;99.90;;;;;;5092714;28;20556;-70
2021/12/30 02:57:00;;;;;;;0.40;0.40;;;6.90;99.90;;;;;;5092054;28;20438;-69
2021/12/30 02:59:47;;;;;;;0.40;0.40;;;6.90;99.90;;;;;;5091675;28;20822;-73
2021/12/30 03:02:36;;;;;;;0.40;0.40;;;6.90;99.90;;;;;;5072757;28;20419;-70
2021/12/30 03:05:24;;;;;;;0.40;0.40;;;6.80;99.90;;;;;;5073553;28;20451;-70
2021/12/30 03:08:11;;;;;;;0.40;0.40;;;6.80;99.90;;;;;;5074120;28;20435;-71
2021/12/30 03:10:58;;;;;;;0.50;0.50;;;6.90;99.90;;;;;;5073232;28;21008;-72
2021/12/30 03:13:46;;;;;;;0.80;0.80;;;7.10;99.90;;;;;;5073892;28;20470;-70
2021/12/30 03:16:35;;;;;;;0.40;0.40;;;7.00;99.90;;;;;;5073492;28;20477;-70
2021/12/30 03:19:22;;;;;;;0.40;0.40;;;7.00;99.90;;;;;;5071878;28;21011;-71
2021/12/30 03:22:09;;;;;;;0.40;0.40;;;7.20;99.90;;;;;;5072411;28;20419;-70
2021/12/30 03:24:56;;;;;;;0.40;0.40;;;7.10;99.90;;;;;;5073437;28;20423;-71
2021/12/30 03:27:44;;;;;;;0.50;0.50;;;7.10;99.90;;;;;;5073325;28;20474;-70
2021/12/30 03:30:32;;;;;;;1.37;1.27;;;7.10;99.90;;;;;;5072683;28;20431;-70
2021/12/30 03:33:20;;;;;;;0.50;0.50;;;7.20;99.90;;;;;;5072251;28;20479;-71
2021/12/30 03:36:08;;;;;;;0.40;0.40;;;7.20;99.90;;;;;;5072642;28;20414;-71
2021/12/30 03:38:56;;;;;;;1.43;1.03;;;7.20;99.90;;;;;;5071440;28;20443;-70
2021/12/30 03:41:43;;;;;;;0.50;0.50;;;7.20;99.90;;;;;;5071401;28;20923;-70
2021/12/30 03:44:30;;;;;;;0.70;0.70;;;7.40;99.90;;;;;;5071056;28;20481;-70
2021/12/30 03:47:19;;;;;;;1.10;1.10;;;7.30;99.90;;;;;;5071676;28;20423;-71
2021/12/30 03:50:09;;;;;;;0.60;0.60;;;7.30;99.90;;;;;;5071565;28;20442;-71
2021/12/30 03:52:57;;;;;;;0.70;0.50;;;7.30;99.90;;;;;;5071959;28;20497;-70
2021/12/30 03:55:46;;;;;;;0.40;0.40;;;7.50;99.90;;;;;;5071560;28;20474;-70
2021/12/30 03:58:33;;;;;;;1.00;1.00;;;7.40;99.90;;;;;;5071732;28;20457;-69
2021/12/30 04:01:23;;;;;;;2.80;1.00;;;7.40;99.90;;;;;;5080876;28;20426;-70
2021/12/30 04:04:11;;;;;;;2.83;1.90;;;7.60;99.90;;;;;;5091948;28;20481;-72
2021/12/30 04:06:58;;;;;;;2.53;1.63;;;7.60;99.90;;;;;;5091892;28;20422;-70
2021/12/30 04:09:45;;;;;;;0.40;0.40;;;7.50;99.90;;;;;;5091381;28;20513;-70
2021/12/30 04:12:32;;;;;;;5.70;3.70;;;7.60;99.90;;;;;;5076931;28;20801;-71
2021/12/30 04:15:19;;;;;;;2.40;1.17;;;7.60;99.90;;;;;;5071105;28;20498;-70
2021/12/30 04:18:06;;;;;;;0.70;0.70;;;7.80;99.90;;;;;;5070967;28;20419;-71
2021/12/30 04:20:55;;;;;;;13.43;5.20;;;7.70;99.90;;;;;;5070558;28;20516;-71
2021/12/30 04:23:42;;;;;;;3.97;2.50;;;7.80;99.90;;;;;;5072802;28;20442;-71
2021/12/30 04:26:29;;;;;;;0.53;0.53;;;7.90;99.90;;;;;;5074473;28;20479;-70
2021/12/30 04:29:15;;;;;;;0.40;0.40;;;8.00;99.90;;;;;;5074606;28;20423;-71
2021/12/30 04:32:03;;;;;;;1.07;1.07;;;7.90;99.90;;;;;;5074765;28;20496;-71
2021/12/30 04:34:50;;;;;;;0.50;0.50;;;7.90;99.90;;;;;;5074894;28;20549;-70
2021/12/30 04:37:38;;;;;;;0.40;0.40;;;8.00;99.90;;;;;;5074589;28;20631;-71
2021/12/30 04:40:27;;;;;;;0.40;0.40;;;8.20;99.90;;;;;;5074735;28;20805;-70
2021/12/30 04:43:14;;;;;;;1.37;1.07;;;8.10;99.90;;;;;;5075193;28;20951;-70
2021/12/30 04:46:02;;;;;;;2.30;1.73;;;8.20;99.90;;;;;;5075057;28;20422;-71
2021/12/30 04:48:50;;;;;;;0.70;0.70;;;8.10;99.90;;;;;;5074824;28;20469;-75
2021/12/30 04:51:37;;;;;;;2.20;1.40;;;8.10;99.90;;;;;;5074840;28;20918;-70
2021/12/30 04:54:25;;;;;;;8.83;1.53;;;8.20;99.90;;;;;;5074766;28;20512;-71
2021/12/30 04:57:12;;;;;;;5.60;0.93;;;8.10;99.90;;;;;;5075325;28;20914;-71
2021/12/30 04:59:59;;;;;;;0.90;0.90;;;8.20;99.90;;;;;;5074781;28;20432;-71
2021/12/30 05:03:07;;;;;;;0.40;0.40;;;8.40;99.90;;;;;;5075315;28;20427;-70
2021/12/30 05:05:55;;;;;;;3.10;2.10;;;8.30;99.90;;;;;;5076025;28;20422;-71
2021/12/30 05:08:42;;;;;;;4.20;2.30;;;8.40;99.90;;;;;;5075764;28;20473;-71
2021/12/30 05:11:30;;;;;;;1.63;1.43;;;8.40;99.90;;;;;;5075922;28;20459;-70
2021/12/30 05:14:17;;;;;;;1.03;1.03;;;8.30;99.90;;;;;;5075703;28;20894;-71
2021/12/30 05:17:04;;;;;;;2.77;0.97;;;8.40;99.90;;;;;;5073732;28;20805;-71
2021/12/30 05:19:51;;;;;;;0.50;0.50;;;8.30;99.90;;;;;;5075347;28;20468;-70
2021/12/30 05:22:38;;;;;;;1.47;1.37;;;8.30;99.90;;;;;;5075194;28;20532;-71
2021/12/30 05:25:26;;;;;;;0.40;0.40;;;8.50;99.90;;;;;;5075688;28;20872;-70
2021/12/30 05:28:15;;;;;;;0.90;0.90;;;8.30;99.90;;;;;;5074659;28;20420;-72
2021/12/30 05:31:02;;;;;;;0.40;0.40;;;8.30;99.90;;;;;;5075532;28;20423;-71
2021/12/30 05:33:48;;;;;;;1.20;0.70;;;8.30;99.90;;;;;;5074898;28;20451;-73
2021/12/30 05:36:35;;;;;;;0.60;0.60;;;8.30;99.90;;;;;;5075412;28;20415;-71
2021/12/30 05:39:22;;;;;;;0.90;0.90;;;8.50;99.90;;;;;;5073924;28;20539;-70
2021/12/30 05:42:09;;;;;;;0.53;0.53;;;8.30;99.90;;;;;;5075163;28;20430;-71
2021/12/30 05:44:58;;;;;;;0.87;0.77;;;8.40;99.90;;;;;;5075323;28;20477;-70
2021/12/30 05:47:47;;;;;;;0.40;0.40;;;8.30;99.90;;;;;;5075225;28;20462;-70
2021/12/30 05:50:34;;;;;;;0.40;0.40;;;8.40;99.90;;;;;;5074638;28;20427;-69
2021/12/30 05:53:22;;;;;;;5.43;1.47;;;8.30;99.90;;;;;;5075007;28;20493;-71
2021/12/30 05:56:09;;;;;;;0.70;0.70;;;8.40;99.90;;;;;;5074685;28;20458;-71
2021/12/30 05:58:56;;;;;;;0.50;0.50;;;8.40;99.90;;;;;;5074901;28;20502;-71
2021/12/30 06:01:44;;;;;;;1.40;0.90;;;8.30;99.90;;;;;;5088057;28;20427;-71
2021/12/30 06:04:31;;;;;;;0.50;0.50;;;8.20;99.90;;;;;;5094486;28;20450;-71
2021/12/30 06:07:18;;;;;;;0.40;0.40;;;8.20;99.90;;;;;;5095155;28;20484;-71
2021/12/30 06:10:06;;;;;;;1.07;1.03;;;8.10;99.90;;;;;;5094775;28;20426;-70
2021/12/30 06:12:53;;;;;;;0.40;0.40;;;8.00;99.90;;;;;;5093904;28;20504;-69
2021/12/30 06:15:40;;;;;;;0.60;0.60;;;8.20;99.90;;;;;;5093223;28;20466;-70
2021/12/30 06:18:28;;;;;;;0.90;0.90;;;8.00;99.90;;;;;;5093820;28;20463;-70
2021/12/30 06:21:15;;;;;;;0.40;0.40;;;7.90;99.90;;;;;;5093767;28;20426;-71
2021/12/30 06:24:02;;;;;;;0.40;0.40;;;7.80;99.90;;;;;;5094007;28;20692;-70
2021/12/30 06:26:49;;;;;;;1.03;1.03;;;7.90;99.90;;;;;;5093120;28;20422;-70
2021/12/30 06:29:36;;;;;;;0.40;0.40;;;7.80;99.90;;;;;;5094025;28;20427;-70
2021/12/30 06:32:23;;;;;;;0.40;0.40;;;7.90;99.90;;;;;;5094152;28;20425;-71
2021/12/30 06:35:12;;;;;;;0.50;0.50;;;7.80;99.90;;;;;;5093927;28;20553;-70
2021/12/30 06:37:59;;;;;;;0.77;0.77;;;7.80;99.90;;;;;;5093985;28;20499;-72
2021/12/30 06:40:46;;;;;;;1.13;1.13;;;7.80;99.90;;;;;;5093488;28;20433;-71
2021/12/30 06:43:32;;;;;;;0.40;0.40;;;7.80;99.90;;;;;;5093737;28;20954;-72
2021/12/30 06:46:21;;;;;;;0.40;0.40;;;7.70;99.90;;;;;;5092840;28;20419;-70
2021/12/30 06:49:09;;;;;;;0.40;0.40;;;7.80;99.90;;;;;;5093466;28;20576;-70
2021/12/30 06:51:57;;;;;;;0.40;0.40;;;7.80;99.90;;;;;;5093760;28;20459;-70
2021/12/30 06:54:44;;;;;;;0.40;0.40;;;8.00;99.90;;;;;;5093528;28;20543;-70
2021/12/30 06:57:31;;;;;;;0.90;0.90;;;7.90;99.90;;;;;;5093084;28;20517;-70
2021/12/30 07:00:18;;;;;;;0.40;0.40;;;7.90;99.90;;;;;;5092487;28;20511;-70
2021/12/30 07:03:05;;;;;;;0.47;0.47;;;8.00;99.90;;;;;;5072656;28;20465;-71
2021/12/30 07:05:54;;;;;;;0.43;0.43;;;8.00;99.90;;;;;;5073886;28;21042;-71
2021/12/30 07:08:42;;;;;;;0.40;0.40;;;7.90;99.90;;;;;;5072713;28;20875;-70
2021/12/30 07:11:29;;;;;;;0.40;0.40;;;7.90;99.90;;;;;;5072064;28;20460;-70
2021/12/30 07:14:17;;;;;;;7.70;7.13;;;8.00;99.90;;;;;;5072049;28;20439;-70
2021/12/30 07:17:04;;;;;;;0.50;0.50;;;8.00;99.90;;;;;;5072673;28;20416;-71
2021/12/30 07:19:51;;;;;;;0.40;0.40;;;8.00;99.90;;;;;;5073669;28;20448;-71
2021/12/30 07:22:38;;;;;;;0.40;0.40;;;8.00;99.90;;;;;;5072260;28;20433;-70
2021/12/30 07:25:27;;;;;;;0.53;0.53;;;8.20;99.90;;;;;;5073793;28;20765;-70
2021/12/30 07:28:13;;;;;;;0.40;0.40;;;8.10;99.90;;;;;;5072222;28;20451;-72
2021/12/30 07:31:00;;;;;;;0.40;0.40;;;8.20;99.90;;;;;;5072189;28;20465;-72
2021/12/30 07:33:47;;;;;;;0.40;0.40;;;8.20;99.90;;;;;;5072645;28;20447;-70
2021/12/30 07:36:34;;;;;;;0.40;0.40;;;8.30;99.90;;;;;;5072315;28;21062;-71
2021/12/30 07:39:21;;;;;;;0.40;0.40;;;8.30;99.90;;;;;;5072273;28;20435;-71
2021/12/30 07:42:10;;;;;;;0.40;0.40;;;8.40;99.90;;;;;;5072204;28;21016;-71
2021/12/30 07:44:57;;;;;;;0.40;0.40;;;8.40;99.90;;;;;;5071871;28;20470;-73
2021/12/30 07:47:45;;;;;;;0.40;0.40;;;8.50;99.90;;;;;;5072007;28;20423;-71
2021/12/30 07:50:32;;;;;;;0.40;0.40;;;8.50;99.90;;;;;;5071683;28;20431;-70
2021/12/30 07:53:20;;;;;;;0.40;0.40;;;8.50;99.90;;;;;;5071788;28;20526;-71
2021/12/30 07:56:07;;;;;;;0.40;0.40;;;8.60;99.90;;;;;;5072277;28;20520;-71
2021/12/30 07:58:55;;;;;;;0.40;0.40;;;8.60;99.90;;;;;;5073762;28;20939;-71
2021/12/30 08:01:42;;;;;;;0.50;0.50;;;8.60;99.90;;;;;;5088907;28;20434;-71
2021/12/30 08:04:29;;;;;;;0.40;0.40;;;8.70;99.90;;;;;;5096984;28;20953;-71
2021/12/30 08:07:20;;;;;;;0.40;0.40;;;8.70;99.90;;;;;;5096715;28;20414;-73
2021/12/30 08:10:12;;;;;;;0.40;0.40;;;8.70;99.90;;;;;;5096742;28;20803;-72
2021/12/30 08:12:59;;;;;;;0.40;0.40;;;8.60;99.90;;;;;;5096819;28;20970;-71
2021/12/30 08:15:47;;;;;;;0.50;0.50;;;8.60;99.90;;;;;;5096279;28;20512;-71
2021/12/30 08:18:34;;;;;;;0.40;0.40;;;8.50;99.90;;;;;;5096547;28;20483;-73
2021/12/30 08:21:21;;;;;;;0.40;0.40;;;8.50;99.90;;;;;;5096754;28;20434;-70
2021/12/30 08:24:08;;;;;;;0.40;0.40;;;8.70;99.90;;;;;;5096198;28;20446;-71
2021/12/30 08:26:55;;;;;;;0.40;0.40;;;8.60;99.90;;;;;;5095394;28;20946;-72
2021/12/30 08:29:43;;;;;;;0.40;0.40;;;8.60;99.90;;;;;;5096538;28;20540;-70
2021/12/30 08:32:33;;;;;;;0.40;0.40;;;8.70;99.90;;;;;;5096335;28;20512;-71
2021/12/30 08:35:21;;;;;;;0.40;0.40;;;8.70;99.90;;;;;;5096057;28;20837;-70
2021/12/30 08:38:08;;;;;;;0.40;0.40;;;8.70;99.90;;;;;;5096104;28;20434;-71
2021/12/30 08:40:55;;;;;;;0.50;0.50;;;8.90;99.90;;;;;;5095734;28;20425;-71
2021/12/30 08:43:42;;;;;;;0.40;0.40;;;9.10;99.90;;;;;;5095826;28;20977;-71
2021/12/30 08:46:29;;;;;;;0.40;0.40;;;8.90;99.90;;;;;;5095764;28;20422;-71
2021/12/30 08:49:17;;;;;;;0.40;0.40;;;9.10;99.90;;;;;;5095812;28;20483;-72
2021/12/30 08:52:05;;;;;;;0.40;0.40;;;9.10;99.90;;;;;;5095766;28;20472;-71
2021/12/30 08:54:52;;;;;;;0.40;0.40;;;9.10;99.90;;;;;;5095686;28;20966;-71
2021/12/30 08:57:40;;;;;;;0.40;0.40;;;9.30;99.90;;;;;;5095813;28;20430;-72
2021/12/30 09:00:30;;;;;;;0.40;0.40;;;9.30;99.90;;;;;;5093496;28;20584;-72
2021/12/30 09:03:18;;;;;;;0.40;0.40;;;9.40;99.90;;;;;;5076460;28;20466;-72
2021/12/30 09:06:06;;;;;;;0.40;0.40;;;9.50;99.90;;;;;;5075838;28;20423;-71
2021/12/30 09:08:53;;;;;;;0.50;0.50;;;9.50;99.90;;;;;;5075296;28;20423;-72
2021/12/30 09:11:40;;;;;;;0.40;0.40;;;9.50;99.90;;;;;;5076379;28;20458;-72
2021/12/30 09:14:27;;;;;;;0.43;0.43;;;9.70;99.90;;;;;;5075359;28;20963;-71
2021/12/30 09:17:14;;;;;;;0.40;0.40;;;9.60;99.90;;;;;;5075652;28;20459;-72
2021/12/30 09:20:01;;;;;;;0.40;0.40;;;9.60;99.90;;;;;;5075858;28;20435;-70
2021/12/30 09:22:50;;;;;;;0.40;0.40;;;9.70;99.90;;;;;;5075448;28;20427;-71
2021/12/30 09:25:37;;;;;;;0.40;0.40;;;9.70;99.90;;;;;;5075970;28;20439;-71
2021/12/30 09:28:24;;;;;;;0.50;0.50;;;9.70;99.90;;;;;;5075243;28;20480;-71
2021/12/30 09:31:11;;;;;;;0.40;0.40;;;9.70;99.90;;;;;;5075862;28;20919;-72
2021/12/30 09:33:58;;;;;;;0.40;0.40;;;9.70;99.90;;;;;;5076208;28;20524;-70
2021/12/30 09:36:45;;;;;;;0.40;0.40;;;9.80;99.90;;;;;;5075191;28;20455;-71
2021/12/30 09:39:33;;;;;;;0.40;0.40;;;9.80;99.90;;;;;;5075441;28;20430;-71
2021/12/30 09:42:20;;;;;;;0.40;0.40;;;9.80;99.90;;;;;;5075932;28;20515;-72
2021/12/30 09:45:08;;;;;;;0.40;0.40;;;9.90;99.90;;;;;;5075979;28;20508;-71
2021/12/30 09:47:57;;;;;;;0.40;0.40;;;9.90;99.90;;;;;;5075956;28;20433;-72
2021/12/30 09:50:48;;;;;;;0.40;0.40;;;10.00;99.90;;;;;;5075315;28;20419;-72
2021/12/30 09:53:35;;;;;;;1.07;1.03;;;10.00;99.90;;;;;;5074898;28;20439;-71
2021/12/30 09:56:24;;;;;;;0.40;0.40;;;10.00;99.90;;;;;;5075257;28;20994;-72
2021/12/30 09:59:12;;;;;;;0.40;0.40;;;10.10;99.90;;;;;;5074507;28;20423;-72
2021/12/30 10:01:59;;;;;;;0.40;0.40;;;10.00;99.90;;;;;;5090002;28;20422;-71
2021/12/30 10:04:46;;;;;;;0.40;0.40;;;9.90;99.90;;;;;;5095359;28;20587;-71
2021/12/30 10:07:33;;;;;;;0.40;0.40;;;10.20;99.90;;;;;;5076844;28;20844;-71
2021/12/30 10:10:28;;;;;;;0.40;0.40;;;10.10;99.90;;;;;;5077345;28;20434;-70
2021/12/30 10:13:23;;;;;;;0.40;0.40;;;10.20;99.90;;;;;;5095881;28;20983;-70
2021/12/30 10:16:13;;;;;;;0.40;0.40;;;10.40;99.90;;;;;;5095714;28;20472;-70
2021/12/30 10:19:05;;;;;;;0.50;0.50;;;10.20;99.90;;;;;;5095166;28;20977;-71
2021/12/30 10:21:52;;;;;;;0.40;0.40;;;10.20;99.90;;;;;;5094815;28;20783;-71
2021/12/30 10:24:40;;;;;;;0.40;0.40;;;10.20;99.90;;;;;;5095044;28;20503;-71
2021/12/30 10:27:29;;;;;;;0.40;0.40;;;10.10;99.90;;;;;;5094487;28;20460;-71
2021/12/30 10:30:31;;;;;;;0.40;0.40;;;10.20;99.90;;;;;;5095470;28;20422;-71
2021/12/30 10:33:20;;;;;;;0.40;0.40;;;10.20;99.90;;;;;;5095345;28;20464;-71
2021/12/30 10:36:15;;;;;;;0.90;0.77;;;10.10;99.90;;;;;;5093641;28;20529;-72
2021/12/30 10:39:16;;;;;;;0.40;0.40;;;10.10;99.90;;;;;;5093540;28;20434;-71
2021/12/30 10:42:19;;;;;;;0.40;0.40;;;10.10;99.90;;;;;;5094842;28;20422;-71
2021/12/30 10:45:07;;;;;;;0.90;0.90;;;10.00;99.90;;;;;;5094139;28;21003;-71
2021/12/30 10:47:56;;;;;;;0.40;0.40;;;10.20;99.90;;;;;;5094266;28;20437;-71
2021/12/30 10:50:43;;;;;;;0.40;0.40;;;10.40;99.90;;;;;;5094371;28;20426;-71
2021/12/30 10:53:31;;;;;;;0.40;0.40;;;10.30;99.90;;;;;;5094571;28;20480;-72
2021/12/30 10:56:26;;;;;;;0.40;0.40;;;10.30;99.90;;;;;;5094869;28;20450;-71
2021/12/30 10:59:20;;;;;;;0.40;0.40;;;10.30;99.90;;;;;;5094281;28;20551;-71
2021/12/30 11:02:12;;;;;;;0.40;0.40;;;10.40;99.90;;;;;;5078719;28;20434;-71
2021/12/30 11:05:02;;;;;;;0.40;0.40;;;10.20;99.90;;;;;;5074641;28;20426;-72
2021/12/30 11:07:52;;;;;;;0.40;0.40;;;10.30;99.90;;;;;;5074760;28;20916;-72
2021/12/30 11:10:39;;;;;;;0.40;0.40;;;10.20;99.90;;;;;;5073051;28;20433;-71
2021/12/30 11:13:26;;;;;;;0.40;0.40;;;10.20;99.90;;;;;;5074946;28;20439;-70
2021/12/30 11:16:13;;;;;;;0.40;0.40;;;10.40;99.90;;;;;;5074240;28;20998;-72
2021/12/30 11:19:00;;;;;;;0.40;0.40;;;10.20;99.90;;;;;;5073289;28;20426;-71
2021/12/30 11:21:51;;;;;;;0.40;0.40;;;10.30;99.90;;;;;;5075045;28;20435;-71
2021/12/30 11:24:39;;;;;;;0.40;0.40;;;10.20;99.90;;;;;;5074475;28;20436;-71
2021/12/30 11:27:28;;;;;;;0.40;0.40;;;10.30;99.90;;;;;;5074617;28;20426;-73
2021/12/30 11:30:18;;;;;;;0.40;0.40;;;10.40;99.90;;;;;;5074488;28;20509;-71
2021/12/30 11:33:05;;;;;;;0.40;0.40;;;10.50;99.90;;;;;;5074528;28;20493;-71
2021/12/30 11:35:52;;;;;;;0.40;0.40;;;10.50;99.90;;;;;;5073901;28;20958;-71
2021/12/30 11:38:41;;;;;;;0.40;0.40;;;10.50;99.90;;;;;;5074194;28;20420;-72
2021/12/30 11:41:29;;;;;;;0.40;0.40;;;10.60;99.90;;;;;;5074037;28;20943;-71
2021/12/30 11:44:34;;;;;;;0.40;0.40;;;10.60;99.90;;;;;;5075678;28;20447;-71
2021/12/30 11:47:42;;;;;;;0.40;0.40;;;10.60;99.90;;;;;;5075271;28;20419;-71
2021/12/30 11:50:32;;;;;;;0.40;0.40;;;10.60;99.90;;;;;;5074253;28;20612;-71
2021/12/30 11:53:26;;;;;;;0.40;0.40;;;10.50;99.90;;;;;;5073510;28;20447;-71
2021/12/30 11:56:22;;;;;;;0.40;0.40;;;10.60;99.90;;;;;;5073494;28;20415;-72
2021/12/30 11:59:11;;;;;;;0.40;0.40;;;10.60;99.90;;;;;;5074442;28;20424;-70
2021/12/30 12:01:57;;;;;;;0.40;0.40;;;10.70;99.90;;;;;;5074108;28;20425;-72
2021/12/30 12:04:44;;;;;;;0.50;0.50;;;10.70;99.90;;;;;;5072656;28;20495;-70
2021/12/30 12:08:01;;;;;;;0.40;0.40;;;10.80;99.90;;;;;;5073099;28;20476;-71
2021/12/30 12:11:12;;;;;;;0.40;0.40;;;10.60;99.90;;;;;;5072352;28;20865;-72
2021/12/30 12:14:14;;;;;;;0.40;0.40;;;10.60;99.90;;;;;;5072042;28;20443;-71
2021/12/30 12:17:04;;;;;;;0.50;0.50;;;10.60;99.90;;;;;;5071922;28;20470;-71
2021/12/30 12:19:53;;;;;;;0.40;0.40;;;10.60;99.90;;;;;;5072487;28;20932;-71
2021/12/30 12:22:40;;;;;;;0.40;0.40;;;10.60;99.90;;;;;;5072349;28;20857;-71
2021/12/30 12:25:29;;;;;;;0.40;0.40;;;10.60;99.90;;;;;;5072735;28;20443;-71
2021/12/30 12:28:20;;;;;;;0.40;0.40;;;10.60;99.90;;;;;;5071945;28;20794;-73
2021/12/30 12:31:10;;;;;;;0.40;0.40;;;10.70;99.90;;;;;;5072218;28;20423;-71
2021/12/30 12:33:59;;;;;;;0.40;0.40;;;10.70;99.90;;;;;;5072273;28;20486;-71
2021/12/30 12:36:46;;;;;;;0.40;0.40;;;10.70;99.90;;;;;;5072193;28;20548;-71
2021/12/30 12:39:33;;;;;;;0.40;0.40;;;10.70;99.90;;;;;;5072290;28;20849;-71
2021/12/30 12:42:20;;;;;;;0.40;0.40;;;10.70;99.90;;;;;;5073298;28;20424;-71
2021/12/30 12:45:15;;;;;;;0.40;0.40;;;10.60;99.90;;;;;;5074614;28;20473;-71
2021/12/30 12:48:23;;;;;;;0.40;0.40;;;10.70;99.90;;;;;;5076260;28;20423;-70
2021/12/30 12:51:24;;;;;;;0.40;0.40;;;10.70;99.90;;;;;;5074842;28;20453;-71
2021/12/30 12:54:11;;;;;;;0.40;0.40;;;10.70;99.90;;;;;;5075085;28;20790;-70
2021/12/30 13:00:08;;;;;;;0.40;0.40;;;10.70;99.90;;;;;;5075685;28;20515;-71
2021/12/30 13:02:55;;;;;;;0.40;0.40;;;10.60;99.90;;;;;;5075029;28;20485;-71
2021/12/30 13:05:55;;;;;;;0.40;0.40;;;10.60;99.90;;;;;;5075983;28;20962;-71
2021/12/30 13:08:46;;;;;;;0.67;0.67;;;10.70;99.90;;;;;;5075236;28;20556;-70
2021/12/30 13:11:35;;;;;;;0.40;0.40;;;10.60;99.90;;;;;;5076404;28;20997;-71
2021/12/30 13:14:24;;;;;;;0.40;0.40;;;10.60;99.90;;;;;;5075085;28;20443;-70
2021/12/30 13:17:13;;;;;;;2.53;1.27;;;10.60;99.90;;;;;;5076358;28;20512;-71
2021/12/30 13:20:00;;;;;;;0.50;0.50;;;10.50;99.90;;;;;;5074202;28;20526;-70
2021/12/30 13:22:49;;;;;;;0.93;0.93;;;10.50;99.90;;;;;;5077009;28;20459;-71
2021/12/30 13:25:36;;;;;;;0.40;0.40;;;10.50;99.90;;;;;;5074165;28;20799;-71
2021/12/30 13:28:23;;;;;;;0.40;0.40;;;10.60;99.90;;;;;;5075079;28;20473;-71
2021/12/30 13:31:14;;;;;;;0.40;0.40;;;10.70;99.90;;;;;;5076316;28;20935;-71
2021/12/30 13:34:03;;;;;;;0.40;0.40;;;10.60;99.90;;;;;;5074717;28;20446;-72
2021/12/30 13:36:50;;;;;;;0.40;0.40;;;10.50;99.90;;;;;;5076704;28;20455;-71
2021/12/30 13:39:38;;;;;;;0.40;0.40;;;10.60;99.90;;;;;;5074742;28;20466;-71
2021/12/30 13:42:28;;;;;;;0.40;0.40;;;10.60;99.90;;;;;;5074650;28;20423;-71
2021/12/30 13:45:15;;;;;;;0.40;0.40;;;10.60;99.90;;;;;;5075525;28;20489;-71
2021/12/30 13:48:06;;;;;;;0.40;0.40;;;10.60;99.90;;;;;;5075162;28;20859;-71
2021/12/30 13:50:55;;;;;;;0.40;0.40;;;10.70;99.90;;;;;;5075571;28;20806;-70
2021/12/30 13:53:45;;;;;;;0.40;0.40;;;10.70;99.90;;;;;;5076010;28;20478;-71
2021/12/30 13:56:33;;;;;;;0.40;0.40;;;10.80;99.90;;;;;;5076153;28;20435;-71
2021/12/30 13:59:20;;;;;;;0.40;0.40;;;10.60;99.90;;;;;;5076314;28;20415;-71
2021/12/30 14:02:11;;;;;;;0.40;0.40;;;10.90;99.90;;;;;;5092856;28;20458;-71
2021/12/30 14:05:05;;;;;;;0.40;0.40;;;10.70;99.90;;;;;;5095661;28;20512;-71
2021/12/30 14:07:52;;;;;;;0.40;0.40;;;10.70;99.90;;;;;;5095742;28;20554;-70
2021/12/30 14:10:52;;;;;;;0.40;0.40;;;10.70;99.90;;;;;;5095553;28;20774;-71
2021/12/30 14:13:43;;;;;;;0.83;0.80;;;10.80;99.90;;;;;;5095751;28;20544;-71
2021/12/30 14:16:34;;;;;;;0.40;0.40;;;10.80;99.90;;;;;;5095688;28;20433;-70
2021/12/30 14:19:27;;;;;;;0.40;0.40;;;10.80;99.90;;;;;;5095035;28;20418;-71
2021/12/30 14:22:14;;;;;;;0.40;0.40;;;10.80;99.90;;;;;;5094693;28;20479;-71
2021/12/30 14:25:01;;;;;;;0.40;0.40;;;10.80;99.90;;;;;;5095914;28;20936;-71
2021/12/30 14:27:48;;;;;;;0.40;0.40;;;10.80;99.90;;;;;;5096204;28;20910;-71
2021/12/30 14:30:37;;;;;;;0.50;0.50;;;10.80;99.90;;;;;;5095078;28;20472;-72
2021/12/30 14:33:26;;;;;;;0.50;0.50;;;10.80;99.90;;;;;;5095088;28;20474;-71
2021/12/30 14:36:15;;;;;;;0.40;0.40;;;10.80;99.90;;;;;;5094713;28;20509;-72
2021/12/30 14:39:18;;;;;;;0.40;0.40;;;10.90;99.90;;;;;;5094644;28;20493;-71
2021/12/30 14:42:09;;;;;;;0.40;0.40;;;10.90;99.90;;;;;;5094317;28;20479;-70
2021/12/30 14:44:58;;;;;;;0.40;0.40;;;11.00;99.90;;;;;;5094785;28;20527;-72
2021/12/30 14:47:56;;;;;;;0.50;0.50;;;11.10;99.90;;;;;;5094590;28;20476;-72
2021/12/30 14:50:43;;;;;;;0.40;0.40;;;11.10;99.90;;;;;;5094418;28;20491;-71